Weather observations for the past three days for
Kenosha, Kenosha Regional Airport
Imperial (Metric)
Date Time (cdt) Wind (mph) Vis. (mi.) Weather Sky Cond. Temperature (ºF) Relative Humidity Wind Chill (°F) Heat Index (°F) Pressure Precipitation (in)
Air Dwpt 6 hour altimeter (in) sea level (mb) 1 hr 3 hr 6 hr
Max. Min.
03 00:53 W 3 10.00 Mostly Cloudy BKN100 75 73.9 84.9 75 96% 73 29.94 1013.1
02 23:53 W 6 10.00 Fair CLR 75 73.9 96% 73 29.93 1012.9
02 22:53 Calm 10.00 Fair CLR 77 75 94% 78 29.93 1012.7
02 21:53 W 3 10.00 Fair CLR 77 75 94% 78 29.93 1012.8
02 20:53 SW 5 10.00 Fair CLR 79 75.9 90% 83 29.92 1012.5
02 19:53 SW 3 10.00 A Few Clouds FEW110 82 75.9 82% 89 29.9 1012.1
02 18:53 W 5 10.00 Partly Cloudy SCT120 84.9 75.9 91 84.9 75% 94 29.9 1011.9
02 17:53 NW 6 10.00 A Few Clouds FEW120 87.1 77 72% 99 29.9 1012.0
02 16:53 W 8 10.00 A Few Clouds FEW110 89.1 75 63% 99 29.9 1011.9
02 15:53 W 7 10.00 Fair CLR 90 75.9 63% 102 29.91 1012.1
02 14:53 W 8 10.00 Fair CLR 90 73.9 59% 99 29.92 1012.5
02 13:53 W 12 10.00 Fair CLR 90 73.9 59% 99 29.92 1012.7
02 12:53 SW 9 10.00 Partly Cloudy SCT120 88 73.9 89.1 73 63% 97 29.94 1013.1
02 11:53 S 9 10.00 Mostly Cloudy BKN100 87.1 73.9 65% 95 29.94 1013.1
02 10:53 SE 8 10.00 Fair CLR 84 73 70% 90 29.95 1013.7
02 09:53 E 6 10.00 Fair CLR 80.1 71.1 74% 84 29.96 1014.1
02 08:53 NE 5 10.00 Fair CLR 79 73 82% 82 29.98 1014.6
02 07:53 W 3 10.00 Partly Cloudy SCT100 75.9 71.1 85% 76 29.99 1015.0
02 06:53 Calm 10.00 Partly Cloudy SCT100 73.9 70 77 73 88% 29.96 1014.0
02 05:53 SW 7 10.00 Partly Cloudy SCT100 75.9 70 82% 77 29.95 1013.5
02 04:53 SW 7 10.00 Fair CLR 73 70 90% 29.95 1013.7
02 03:53 SW 6 10.00 A Few Clouds FEW100 75.9 71.1 85% 76 29.95 1013.6
02 02:53 SW 6 10.00 Fair CLR 75 72 90% 74 29.95 1013.5
02 01:53 SW 5 10.00 Fair CLR 77 73 88% 78 29.94 1013.3
02 00:53 SW 6 10.00 Overcast OVC120 78.1 73.9 82.9 75.9 87% 81 29.95 1013.6
01 23:53 W 9 10.00 Fair CLR 78.1 75 90% 81 29.95 1013.6
01 22:53 SW 5 10.00 Fair CLR 78.1 75.9 93% 81 29.95 1013.5
01 21:53 SW 8 10.00 Mostly Cloudy BKN110 79 75.9 90% 83 29.95 1013.6
01 20:53 Calm 10.00 Mostly Cloudy BKN110 77 75 94% 78 29.95 1013.7
01 19:53 NE 3 8.00 Fair CLR 79 75 88% 83 29.93 1013.0
01 18:53 E 5 10.00 Fair CLR 82.9 77 89.1 82 82% 92 29.92 1012.7
01 17:53 E 6 10.00 Partly Cloudy SCT110 84.9 80.1 85% 99 29.94 1013.3
01 16:53 NE 3 10.00 Fair CLR 86 80.1 83% 101 29.94 1013.2
01 15:53 N 6 10.00 Fair CLR 89.1 80.1 75% 106 29.95 1013.5
01 14:53 W 5 10.00 Light Rain FEW029 FEW120 84.9 79 82% 98 29.95 1013.7
01 13:53 W 6 10.00 Fair CLR 86 79 80% 100 29.96 1013.8
01 12:53 SW 8 10.00 Light Rain FEW043 SCT085 BKN120 82.9 78.1 86 73 85% 93 29.96 1013.9
01 11:53 S 8 10.00 Thunderstorm in Vicinity FEW016 SCT024 SCT110 84.9 78.1 80% 97 29.97 1014.3
01 10:53 SW 7 10.00 A Few Clouds FEW031 82.9 78.1 85% 93 29.98 1014.8
01 09:53 SW 3 10.00 Mostly Cloudy BKN030 82 75.9 82% 89 29.98 1014.5
01 08:53 SW 5 10.00 Fair CLR 80.1 75 85% 85 29.98 1014.4
01 07:53 SW 3 10.00 Partly Cloudy SCT029 75.9 73 91% 76 29.98 1014.6
01 06:53 SW 3 7.00 Fair CLR 73 72 73.9 71.1 96% 29.97 1014.2
01 05:53 S 3 9.00 Fair CLR 72 71.1 97% 29.94 1013.4
01 04:53 S 3 10.00 Fair CLR 72 71.1 97% 29.94 1013.3
01 03:53 SW 3 10.00 Fair CLR 72 71.1 97% 29.94 1013.3
01 02:53 W 5 10.00 Partly Cloudy SCT120 73 72 96% 29.93 1012.9
01 01:53 SW 5 10.00 Fair CLR 73 72 96% 29.93 1012.9
01 00:53 SW 3 10.00 Fair CLR 73 72 81 73 96% 29.94 1013.3
31 23:53 SW 8 10.00 Fair CLR 75.9 73 91% 76 29.94 1013.2
31 22:53 W 6 10.00 Fair CLR 75 73 94% 73 29.94 1013.3
31 21:53 SW 6 10.00 Fair CLR 78.1 73.9 87% 81 29.94 1013.4
31 20:53 SW 7 10.00 Fair CLR 79 73.9 85% 83 29.94 1013.4
31 19:53 SW 7 10.00 Fair CLR 80.1 75 85% 85 29.93 1013.0
31 18:53 S 7 10.00 Fair CLR 81 75 87.1 79 82% 87 29.91 1012.2
31 17:53 SW 9 10.00 Fair CLR 82 73.9 77% 88 29.91 1012.3
31 16:53 SW 10 10.00 Fair CLR 82 73 74% 87 29.92 1012.5
31 15:53 SW 7 10.00 Light Rain FEW100 FEW120 80.1 71.1 74% 84 29.89 1011.5
31 14:53 SW 15 G 24 10.00 Fair CLR 86 71.1 61% 92 29.9 1011.9
31 13:53 SW 16 G 26 10.00 Fair CLR 86 70 59% 91 29.91 1012.1
31 12:53 SW 13 G 25 10.00 Fair CLR 82.9 69.1 84 71.1 63% 87 29.92 1012.5 0.07
31 11:53 SW 16 G 28 10.00 Fair CLR 81 66.9 62% 83 29.92 1012.8
31 10:53 SW 17 G 29 10.00 Fair CLR 78.1 68 71% 80 29.94 1013.4
31 09:53 S 10 10.00 Overcast OVC100 73.9 68 82% 29.95 1013.7 0.07
31 08:53 S 14 10.00 Overcast OVC100 73 66 79% 29.94 1013.5
31 07:53 S 12 5.00 Light Rain OVC095 72 66.9 84% 29.95 1014.0 0.07
31 06:53 S 10 10.00 Light Rain OVC095 72 66.9 75 70 84% 29.96 1014.2 0.07 0.1
31 05:53 N 5 8.00 Thunderstorm in Vicinity Light Rain SCT090 SCT120 71.1 68 90% 29.97 1014.7 0.03
31 04:53 S 5 10.00 Overcast OVC110 72 66.9 84% 29.93 1013.2
31 03:53 S 6 10.00 Fair CLR 72 66.9 84% 29.94 1013.4
31 02:53 S 5 10.00 A Few Clouds FEW120 73 68 84% 29.94 1013.6
31 01:53 S 5 10.00 Fair CLR 73.9 68 82% 29.96 1014.3
Date Time (cdt) Wind (mph) Vis. (mi.) Weather Sky Cond. Air Dwpt Max. Min. Relative Humidity Wind Chill (°F) Heat Index (°F) altimeter (in) sea level (mb) 1 hr 3 hr 6 hr
6 hour
Temperature (ºF) Pressure Precipitation (in)